Time;durP1;ratioP1;P1;durP2;ratioP2;P2;SDS_P1;SDS_P2;PMS_P1;PMS_P2;Temp;Humidity;BMP_temperature;BMP_pressure;BME280_temperature;BME280_humidity;BME280_pressure;Samples;Min_cycle;Max_cycle;Signal;HPM_P1;HPM_P2
2023/08/16 00:00:16;;;;;;;12.13;9.00;;;564.00;2432.00;;;;;;4956359;29;20120;-81
2023/08/16 00:02:42;;;;;;;11.38;9.10;;;563.90;2432.00;;;;;;4956832;29;20031;-81
2023/08/16 00:05:08;;;;;;;12.70;9.07;;;563.90;2432.00;;;;;;4956084;29;20114;-82
2023/08/16 00:07:34;;;;;;;10.63;9.27;;;563.90;2432.00;;;;;;4955801;29;20031;-81
2023/08/16 00:10:00;;;;;;;12.98;9.00;;;563.90;2432.00;;;;;;4956048;29;20027;-82
2023/08/16 00:12:26;;;;;;;12.70;9.60;;;563.90;2432.00;;;;;;4955972;29;20466;-82
2023/08/16 00:14:52;;;;;;;12.27;10.32;;;563.90;2432.00;;;;;;4956745;28;20034;-81
2023/08/16 00:17:18;;;;;;;13.15;9.95;;;563.90;2432.00;;;;;;4955528;29;20386;-82
2023/08/16 00:19:44;;;;;;;10.85;9.75;;;563.90;2432.00;;;;;;4955489;29;20074;-82
2023/08/16 00:22:10;;;;;;;11.02;8.88;;;564.00;2432.00;;;;;;4955592;29;20023;-81
2023/08/16 00:24:37;;;;;;;11.52;9.98;;;563.60;2432.00;;;;;;4955718;29;20043;-81
2023/08/16 00:27:03;;;;;;;11.77;10.57;;;563.90;2432.00;;;;;;4956542;28;20454;-82
2023/08/16 00:29:29;;;;;;;10.88;9.75;;;563.90;2432.00;;;;;;4955500;29;20135;-83
2023/08/16 00:31:57;;;;;;;11.05;9.55;;;563.90;2432.00;;;;;;4939337;29;20063;-82
2023/08/16 00:34:23;;;;;;;10.00;9.10;;;563.80;2432.00;;;;;;4954905;28;20113;-84
2023/08/16 00:36:49;;;;;;;12.73;9.77;;;563.80;2432.00;;;;;;4951586;29;20126;-81
2023/08/16 00:39:15;;;;;;;11.43;9.68;;;563.80;2432.00;;;;;;4943338;29;20030;-83
2023/08/16 00:41:40;;;;;;;12.43;9.82;;;563.80;2432.00;;;;;;4935217;29;20387;-83
2023/08/16 00:44:06;;;;;;;11.02;9.88;;;563.70;2432.00;;;;;;4936294;29;20122;-83
2023/08/16 00:46:32;;;;;;;12.38;10.30;;;563.70;2432.00;;;;;;4935224;29;20039;-82
2023/08/16 00:48:58;;;;;;;11.30;9.82;;;563.60;2432.00;;;;;;4935114;29;20027;-81
2023/08/16 00:51:24;;;;;;;12.10;9.93;;;563.60;2432.00;;;;;;4934849;29;20051;-80
2023/08/16 00:53:50;;;;;;;11.85;10.65;;;563.60;2432.00;;;;;;4935070;29;20126;-81
2023/08/16 00:56:16;;;;;;;11.35;10.27;;;563.60;2432.00;;;;;;4934879;29;20035;-80
2023/08/16 00:58:43;;;;;;;13.23;11.15;;;563.60;2432.00;;;;;;4935189;29;20440;-79
2023/08/16 01:01:10;;;;;;;12.43;10.15;;;563.30;2432.00;;;;;;4935221;29;20090;-84
2023/08/16 01:03:36;;;;;;;11.20;10.10;;;563.90;2432.00;;;;;;4935956;29;20032;-83
2023/08/16 01:06:04;;;;;;;11.15;10.00;;;563.70;2432.00;;;;;;4936391;29;20452;-83
2023/08/16 01:08:31;;;;;;;12.27;9.93;;;563.70;2432.00;;;;;;4935156;29;20027;-84
2023/08/16 01:11:03;;;;;;;14.05;10.20;;;563.70;2432.00;;;;;;4936164;29;20535;-83
2023/08/16 01:13:35;;;;;;;;;;;563.70;2432.00;;;;;;4935330;29;20023;-83
2023/08/16 01:16:07;;;;;;;12.45;10.23;;;563.60;2432.00;;;;;;4934723;29;20001;-82
2023/08/16 01:18:35;;;;;;;13.43;11.30;;;563.60;2432.00;;;;;;4934981;29;20059;-82
2023/08/16 01:21:02;;;;;;;11.25;10.15;;;563.60;2432.00;;;;;;4936153;29;20050;-84
2023/08/16 01:23:53;;;;;;;14.13;10.93;;;563.60;2432.00;;;;;;4934668;29;20380;-83
2023/08/16 01:26:31;;;;;;;13.50;11.57;;;563.60;2432.00;;;;;;4934995;29;20047;-84
2023/08/16 01:29:00;;;;;;;12.40;10.90;;;563.60;2432.00;;;;;;4935158;29;20042;-83
2023/08/16 01:31:27;;;;;;;12.27;10.98;;;563.50;2432.00;;;;;;4936367;29;20030;-84
2023/08/16 01:33:53;;;;;;;13.23;10.60;;;563.50;2432.00;;;;;;4942231;29;20028;-83
2023/08/16 01:36:19;;;;;;;12.25;10.18;;;563.60;2432.00;;;;;;4937639;29;20028;-83
2023/08/16 01:38:45;;;;;;;11.88;10.63;;;563.60;2432.00;;;;;;4936966;29;20030;-82
2023/08/16 01:41:25;;;;;;;17.48;12.45;;;563.40;2432.00;;;;;;4935594;29;20028;-84
2023/08/16 01:43:53;;;;;;;11.52;10.13;;;563.40;2432.00;;;;;;4937719;29;20112;-83
2023/08/16 01:46:21;;;;;;;14.20;11.93;;;538.50;2406.40;;;;;;4937380;29;20038;-82
2023/08/16 01:48:48;;;;;;;13.93;11.32;;;538.40;2406.40;;;;;;4940136;29;20043;-84
2023/08/16 01:51:15;;;;;;;11.48;10.30;;;538.40;2406.40;;;;;;4939412;29;20051;-83
2023/08/16 01:53:41;;;;;;;15.13;11.88;;;563.20;2432.00;;;;;;4939642;29;20479;-82
2023/08/16 01:56:06;;;;;;;16.73;11.55;;;538.50;2406.40;;;;;;4940290;29;20024;-82
2023/08/16 01:58:32;;;;;;;12.73;11.23;;;538.40;2406.40;;;;;;4940538;29;20510;-82
2023/08/16 02:00:58;;;;;;;18.30;11.07;;;538.40;2406.40;;;;;;4940445;29;20028;-82
2023/08/16 02:03:24;;;;;;;12.98;11.35;;;538.40;2406.40;;;;;;4940409;29;20035;-83
2023/08/16 02:05:50;;;;;;;15.93;11.02;;;538.40;2406.40;;;;;;4940750;29;20036;-84
2023/08/16 02:08:15;;;;;;;12.43;11.20;;;538.40;2406.40;;;;;;4939974;29;20392;-82
2023/08/16 02:10:41;;;;;;;13.00;11.65;;;538.40;2406.40;;;;;;4955657;29;20420;-84
2023/08/16 02:13:07;;;;;;;12.98;10.07;;;538.40;2406.40;;;;;;4939965;29;20039;-82
2023/08/16 02:15:33;;;;;;;17.80;11.75;;;538.40;2406.40;;;;;;4940160;29;20086;-83
2023/08/16 02:17:59;;;;;;;13.93;11.05;;;538.30;2406.40;;;;;;4939459;29;20074;-82
2023/08/16 02:20:24;;;;;;;11.93;10.30;;;538.30;2406.40;;;;;;4938909;29;20034;-82
2023/08/16 02:22:50;;;;;;;13.52;10.35;;;538.30;2406.40;;;;;;4939756;29;20028;-83
2023/08/16 02:25:16;;;;;;;12.82;11.13;;;538.40;2406.40;;;;;;4939927;29;20032;-83
2023/08/16 02:27:42;;;;;;;14.48;11.40;;;538.30;2406.40;;;;;;4940369;29;20036;-83
2023/08/16 02:30:09;;;;;;;14.48;12.32;;;538.30;2406.40;;;;;;4939385;29;20028;-82
2023/08/16 02:32:36;;;;;;;12.88;11.55;;;538.20;2406.40;;;;;;4938939;29;20034;-82
2023/08/16 02:35:03;;;;;;;13.90;11.50;;;538.20;2406.40;;;;;;4938850;29;20049;-81
2023/08/16 02:37:30;;;;;;;13.90;10.98;;;538.20;2406.40;;;;;;4940294;29;20034;-80
2023/08/16 02:39:56;;;;;;;11.63;10.45;;;538.10;2406.40;;;;;;4938711;29;20391;-81
2023/08/16 02:42:21;;;;;;;18.67;12.68;;;538.00;2406.40;;;;;;4938509;29;20082;-80
2023/08/16 02:44:47;;;;;;;14.25;11.70;;;537.90;2406.40;;;;;;4937802;29;20079;-82
2023/08/16 02:47:14;;;;;;;13.10;11.63;;;537.80;2406.40;;;;;;4937846;29;20040;-80
2023/08/16 02:49:40;;;;;;;12.63;11.38;;;537.60;2406.40;;;;;;4939111;29;20028;-80
2023/08/16 02:52:06;;;;;;;14.30;12.57;;;537.70;2406.40;;;;;;4939091;29;20058;-80
2023/08/16 02:54:31;;;;;;;17.13;12.15;;;537.80;2406.40;;;;;;4937594;29;20027;-79
2023/08/16 02:56:57;;;;;;;14.50;12.23;;;537.90;2406.40;;;;;;4937545;29;20027;-81
2023/08/16 02:59:23;;;;;;;12.85;11.55;;;537.80;2406.40;;;;;;4937027;29;20035;-82
2023/08/16 03:01:49;;;;;;;14.20;11.80;;;537.80;2406.40;;;;;;4937399;29;20071;-80
2023/08/16 03:04:15;;;;;;;16.17;11.82;;;537.80;2406.40;;;;;;4937747;29;20027;-80
2023/08/16 03:06:41;;;;;;;13.93;11.88;;;537.90;2406.40;;;;;;4937774;29;20082;-79
2023/08/16 03:09:07;;;;;;;13.48;11.35;;;537.90;2406.40;;;;;;4944289;29;20027;-80
2023/08/16 03:11:32;;;;;;;14.90;11.48;;;537.90;2406.40;;;;;;4950354;29;20028;-80
2023/08/16 03:13:58;;;;;;;14.30;10.75;;;537.90;2406.40;;;;;;4948268;29;20110;-82
2023/08/16 03:16:24;;;;;;;13.43;11.25;;;538.00;2406.40;;;;;;4941212;29;20074;-79
2023/08/16 03:18:50;;;;;;;18.50;11.68;;;538.00;2406.40;;;;;;4939663;29;20071;-81
2023/08/16 03:21:16;;;;;;;16.65;11.05;;;537.70;2406.40;;;;;;4939818;29;20034;-81
2023/08/16 03:23:41;;;;;;;17.30;12.25;;;537.60;2406.40;;;;;;4938451;29;20032;-80
2023/08/16 03:26:07;;;;;;;14.35;12.70;;;537.60;2406.40;;;;;;4939600;29;20032;-79
2023/08/16 03:28:33;;;;;;;16.92;12.57;;;512.90;2380.80;;;;;;4939902;29;20047;-80
2023/08/16 03:30:58;;;;;;;14.05;11.15;;;512.90;2380.80;;;;;;4941093;29;20035;-80
2023/08/16 03:33:24;;;;;;;14.18;11.85;;;512.90;2380.80;;;;;;4951297;29;20396;-80
2023/08/16 03:35:50;;;;;;;17.08;12.20;;;512.90;2380.80;;;;;;4955030;29;20126;-79
2023/08/16 03:38:16;;;;;;;14.73;11.93;;;512.90;2380.80;;;;;;4951937;29;20525;-81
2023/08/16 03:40:42;;;;;;;17.58;12.27;;;512.90;2380.80;;;;;;4940688;29;20027;-81
2023/08/16 03:43:07;;;;;;;16.40;12.93;;;512.70;2380.80;;;;;;4940626;29;20053;-81
2023/08/16 03:45:33;;;;;;;16.25;13.50;;;512.90;2380.80;;;;;;4942409;29;20035;-80
2023/08/16 03:47:59;;;;;;;14.75;12.82;;;512.70;2380.80;;;;;;4949172;29;20038;-82
2023/08/16 03:50:25;;;;;;;22.20;13.30;;;512.90;2380.80;;;;;;4939316;29;20059;-82
2023/08/16 03:52:51;;;;;;;16.92;14.88;;;512.90;2380.80;;;;;;4939436;29;20027;-81
2023/08/16 03:55:17;;;;;;;24.42;14.82;;;512.70;2380.80;;;;;;4938749;29;20039;-80
2023/08/16 03:57:43;;;;;;;21.38;13.82;;;512.60;2380.80;;;;;;4939035;29;20032;-81
2023/08/16 04:00:11;;;;;;;17.67;14.77;;;512.70;2380.80;;;;;;4939446;29;20119;-80
2023/08/16 04:02:40;;;;;;;15.85;13.85;;;512.70;2380.80;;;;;;4937711;29;20126;-79
2023/08/16 04:05:11;;;;;;;15.02;12.95;;;512.70;2380.80;;;;;;4937224;29;20028;-81
2023/08/16 04:07:38;;;;;;;17.70;13.23;;;512.70;2380.80;;;;;;4937854;29;20138;-81
2023/08/16 04:10:05;;;;;;;18.50;13.85;;;512.60;2380.80;;;;;;4936447;29;20024;-79
2023/08/16 04:12:31;;;;;;;14.48;11.45;;;512.70;2380.80;;;;;;4936864;29;20028;-81
2023/08/16 04:14:56;;;;;;;13.77;11.93;;;512.90;2380.80;;;;;;4936950;29;20039;-80
2023/08/16 04:17:22;;;;;;;15.40;11.45;;;512.90;2380.80;;;;;;4936587;29;20032;-81
2023/08/16 04:19:48;;;;;;;15.57;13.13;;;512.90;2380.80;;;;;;4937879;29;20050;-81
2023/08/16 04:22:14;;;;;;;14.80;12.77;;;537.60;2406.40;;;;;;4936421;29;20028;-81
2023/08/16 04:24:39;;;;;;;18.67;12.95;;;537.60;2406.40;;;;;;4936162;29;20067;-80
2023/08/16 04:27:05;;;;;;;17.55;14.00;;;512.90;2380.80;;;;;;4936290;29;20518;-81
2023/08/16 04:29:31;;;;;;;15.57;14.07;;;512.90;2380.80;;;;;;4936283;29;20035;-83
2023/08/16 04:31:57;;;;;;;19.23;13.48;;;512.90;2380.80;;;;;;4937030;29;20475;-82
2023/08/16 04:34:23;;;;;;;19.52;14.48;;;512.70;2380.80;;;;;;4937059;29;20090;-82
2023/08/16 04:36:49;;;;;;;20.77;18.77;;;512.70;2380.80;;;;;;4937926;29;20032;-82
2023/08/16 04:39:15;;;;;;;19.15;17.25;;;512.60;2380.80;;;;;;4937231;29;20039;-82
2023/08/16 04:41:40;;;;;;;20.15;16.90;;;512.40;2380.80;;;;;;4937164;29;20028;-82
2023/08/16 04:44:07;;;;;;;20.45;17.02;;;;;;;;;;4936743;29;20031;-82
2023/08/16 04:46:33;;;;;;;20.10;18.02;;;;;;;;;;4937247;29;20046;-82
2023/08/16 04:48:59;;;;;;;21.60;19.23;;;;;;;;;;4936714;29;20039;-81
2023/08/16 04:51:25;;;;;;;21.13;19.02;;;512.80;2380.80;;;;;;4938169;29;20075;-82
2023/08/16 04:53:50;;;;;;;20.27;16.83;;;512.70;2380.80;;;;;;4939614;29;20039;-83
2023/08/16 04:56:16;;;;;;;16.02;14.35;;;512.70;2380.80;;;;;;4938729;29;20424;-79
2023/08/16 04:58:42;;;;;;;15.60;13.43;;;512.70;2380.80;;;;;;4937998;29;20039;-83
2023/08/16 05:01:09;;;;;;;17.33;13.65;;;512.70;2380.80;;;;;;4936042;29;20170;-82
2023/08/16 05:03:35;;;;;;;18.73;14.15;;;512.90;2380.80;;;;;;4936148;29;20034;-82
2023/08/16 05:06:03;;;;;;;19.67;13.95;;;512.90;2380.80;;;;;;4936855;29;20083;-83
2023/08/16 05:08:29;;;;;;;17.88;15.52;;;512.90;2380.80;;;;;;4935428;29;20036;-82
2023/08/16 05:10:56;;;;;;;20.33;15.20;;;512.80;2380.80;;;;;;4935751;29;20032;-82
2023/08/16 05:13:23;;;;;;;19.15;15.45;;;537.60;2406.40;;;;;;4936802;29;20491;-80
2023/08/16 05:15:49;;;;;;;20.33;16.33;;;512.90;2380.80;;;;;;4935914;29;20114;-82
2023/08/16 05:18:15;;;;;;;18.40;15.30;;;512.80;2380.80;;;;;;4938353;29;20495;-82
2023/08/16 05:20:41;;;;;;;18.33;15.77;;;512.90;2380.80;;;;;;4935782;29;20030;-82
2023/08/16 05:23:06;;;;;;;19.10;13.95;;;512.90;2380.80;;;;;;4936384;29;20034;-82
2023/08/16 05:25:32;;;;;;;20.55;14.52;;;512.90;2380.80;;;;;;4936939;29;20091;-83
2023/08/16 05:28:00;;;;;;;22.23;14.52;;;537.70;2406.40;;;;;;4936937;29;20090;-82
2023/08/16 05:30:26;;;;;;;14.23;12.88;;;537.70;2406.40;;;;;;4936104;29;20031;-83
2023/08/16 05:32:55;;;;;;;23.83;13.90;;;537.80;2406.40;;;;;;4936285;29;20087;-81
2023/08/16 05:35:22;;;;;;;18.50;13.60;;;538.10;2406.40;;;;;;4936823;29;20032;-82
2023/08/16 05:37:48;;;;;;;16.10;14.05;;;537.90;2406.40;;;;;;4937078;29;20027;-82
2023/08/16 05:40:14;;;;;;;15.43;13.88;;;537.60;2406.40;;;;;;4936392;29;20040;-81
2023/08/16 05:42:40;;;;;;;16.08;13.10;;;538.10;2406.40;;;;;;4935247;29;20027;-83
2023/08/16 05:45:07;;;;;;;18.38;15.07;;;538.00;2406.40;;;;;;4936100;29;20128;-82
2023/08/16 05:47:33;;;;;;;20.83;14.38;;;537.90;2406.40;;;;;;4939132;29;20087;-81
2023/08/16 05:49:59;;;;;;;22.10;14.18;;;537.90;2406.40;;;;;;4936143;29;20036;-82
2023/08/16 05:52:25;;;;;;;18.05;14.40;;;537.60;2406.40;;;;;;4935477;29;20060;-83
2023/08/16 05:54:51;;;;;;;26.63;14.80;;;537.90;2406.40;;;;;;4936632;29;20075;-83
2023/08/16 05:57:17;;;;;;;20.52;15.13;;;538.00;2406.40;;;;;;4935361;29;20032;-83
2023/08/16 05:59:43;;;;;;;26.80;14.73;;;538.00;2406.40;;;;;;4935139;29;20478;-82
2023/08/16 06:02:09;;;;;;;24.05;13.98;;;538.10;2406.40;;;;;;4935702;29;20063;-83
2023/08/16 06:04:35;;;;;;;18.00;14.73;;;538.10;2406.40;;;;;;4934642;29;20074;-80
2023/08/16 06:07:02;;;;;;;20.15;14.68;;;538.10;2406.40;;;;;;4936555;29;20036;-81
2023/08/16 06:09:29;;;;;;;19.30;15.18;;;538.20;2406.40;;;;;;4936503;29;20117;-82
2023/08/16 06:11:55;;;;;;;18.33;14.38;;;538.30;2406.40;;;;;;4934864;29;20375;-83
2023/08/16 06:14:21;;;;;;;16.48;14.60;;;538.50;2406.40;;;;;;4943712;29;20038;-81
2023/08/16 06:16:47;;;;;;;20.75;15.27;;;538.50;2406.40;;;;;;4954043;29;20127;-83
2023/08/16 06:19:14;;;;;;;15.18;13.45;;;563.20;2432.00;;;;;;4953953;29;20558;-84
2023/08/16 06:21:40;;;;;;;21.30;14.05;;;538.50;2406.40;;;;;;4956515;28;20019;-81
2023/08/16 06:24:08;;;;;;;16.08;14.38;;;538.50;2406.40;;;;;;4955499;28;20383;-81
2023/08/16 06:26:34;;;;;;;16.88;13.75;;;563.40;2432.00;;;;;;4955099;29;20038;-82
2023/08/16 06:29:00;;;;;;;14.95;13.35;;;564.10;2432.00;;;;;;4955856;28;20109;-84
2023/08/16 06:31:26;;;;;;;19.90;13.35;;;563.70;2432.00;;;;;;4954187;29;20466;-83
2023/08/16 06:33:52;;;;;;;15.93;14.23;;;563.90;2432.00;;;;;;4958233;28;20479;-82
2023/08/16 06:36:19;;;;;;;16.42;14.18;;;564.00;2432.00;;;;;;4957697;29;20031;-83
2023/08/16 06:38:45;;;;;;;20.38;14.95;;;564.00;2432.00;;;;;;4957695;29;20082;-82
2023/08/16 06:41:12;;;;;;;15.88;14.07;;;563.90;2432.00;;;;;;4959514;29;20123;-84
2023/08/16 06:43:39;;;;;;;15.32;13.73;;;563.90;2432.00;;;;;;4958301;29;20038;-81
2023/08/16 06:46:04;;;;;;;15.25;13.57;;;563.90;2432.00;;;;;;4957844;29;20065;-82
2023/08/16 06:48:31;;;;;;;15.73;13.65;;;564.10;2432.00;;;;;;4959000;28;20031;-82
2023/08/16 06:50:57;;;;;;;15.50;13.43;;;;;;;;;;4957588;29;20151;-80
2023/08/16 06:53:25;;;;;;;17.02;14.13;;;;;;;;;;4957233;29;20039;-82
2023/08/16 06:55:54;;;;;;;16.35;13.43;;;;;;;;;;4957889;29;20023;-83
2023/08/16 06:58:20;;;;;;;18.35;14.15;;;;;;;;;;4957555;29;20042;-82
2023/08/16 07:00:49;;;;;;;19.17;15.10;;;564.10;2432.00;;;;;;4958270;29;20015;-81
2023/08/16 07:03:16;;;;;;;15.40;13.80;;;563.90;2432.00;;;;;;4957938;29;20039;-83
2023/08/16 07:05:42;;;;;;;16.40;14.68;;;;;;;;;;4958769;29;20035;-81
2023/08/16 07:08:08;;;;;;;16.63;13.82;;;564.10;2432.00;;;;;;4958534;29;20031;-83
2023/08/16 07:10:34;;;;;;;16.65;14.45;;;564.00;2432.00;;;;;;4960126;29;20041;-80
2023/08/16 07:12:59;;;;;;;19.00;14.00;;;564.00;2432.00;;;;;;4965039;28;20035;-81
2023/08/16 07:15:25;;;;;;;16.20;14.55;;;564.10;2432.00;;;;;;4963271;28;20035;-81
2023/08/16 07:17:51;;;;;;;15.05;13.45;;;588.90;2432.00;;;;;;4962376;28;20489;-84
2023/08/16 07:20:17;;;;;;;16.75;13.90;;;589.10;2432.00;;;;;;4961492;28;20035;-84
2023/08/16 07:22:43;;;;;;;18.80;14.13;;;;;;;;;;4961717;29;20129;-83
2023/08/16 07:25:11;;;;;;;15.75;13.40;;;;;;;;;;4965432;28;20031;-84
2023/08/16 07:27:37;;;;;;;18.65;15.45;;;;;;;;;;4964002;29;20634;-82
2023/08/16 07:30:04;;;;;;;14.70;13.13;;;;;;;;;;4961500;29;20042;-84
2023/08/16 07:32:30;;;;;;;16.02;13.77;;;;;;;;;;4960196;29;20034;-83
2023/08/16 07:34:57;;;;;;;18.20;14.75;;;;;;;;;;4962862;29;20383;-85
2023/08/16 07:37:23;;;;;;;16.10;12.98;;;;;;;;;;4958827;29;20027;-83
2023/08/16 07:39:49;;;;;;;16.15;13.50;;;589.60;2432.00;;;;;;4959699;29;20031;-85
2023/08/16 07:42:19;;;;;;;17.00;13.35;;;614.40;2432.00;;;;;;4957796;29;20023;-82
2023/08/16 07:44:44;;;;;;;14.75;13.32;;;589.70;2432.00;;;;;;4957019;28;20035;-84
2023/08/16 07:47:11;;;;;;;17.90;13.45;;;614.40;2432.00;;;;;;4960868;28;20059;-83
2023/08/16 07:49:37;;;;;;;16.30;13.18;;;614.50;2432.00;;;;;;4959378;29;20039;-85
2023/08/16 07:52:02;;;;;;;13.68;12.23;;;614.50;2432.00;;;;;;4960670;28;20047;-83
2023/08/16 07:54:28;;;;;;;14.35;12.68;;;614.50;2432.00;;;;;;4959532;29;20058;-85
2023/08/16 07:56:54;;;;;;;14.98;11.80;;;614.70;2432.00;;;;;;4960656;29;20058;-83
2023/08/16 07:59:20;;;;;;;17.33;12.30;;;614.80;2432.00;;;;;;4961263;29;20483;-85
2023/08/16 08:01:46;;;;;;;17.05;12.38;;;614.80;2432.00;;;;;;4961593;29;20088;-83
2023/08/16 08:04:11;;;;;;;13.43;10.98;;;614.70;2432.00;;;;;;4961129;29;20058;-82
2023/08/16 08:06:37;;;;;;;13.77;11.32;;;614.70;2432.00;;;;;;4961156;29;20043;-83
2023/08/16 08:09:03;;;;;;;14.65;11.32;;;614.70;2432.00;;;;;;4958289;29;20062;-83
2023/08/16 08:11:29;;;;;;;14.93;10.38;;;614.80;2432.00;;;;;;4959921;29;20158;-85
2023/08/16 08:13:56;;;;;;;11.82;10.55;;;614.90;2432.00;;;;;;4958508;29;20066;-82
2023/08/16 08:16:23;;;;;;;16.08;11.23;;;;;;;;;;4937467;29;20056;-82
2023/08/16 08:18:49;;;;;;;12.93;10.18;;;;;;;;;;4938019;29;20031;-81
2023/08/16 08:21:15;;;;;;;12.68;10.10;;;615.10;2432.00;;;;;;4938111;29;20126;-85
2023/08/16 08:23:41;;;;;;;12.85;10.27;;;614.90;2432.00;;;;;;4921835;29;20031;-84
2023/08/16 08:26:07;;;;;;;11.65;10.13;;;614.90;2432.00;;;;;;4919877;29;20028;-81
2023/08/16 08:28:33;;;;;;;12.32;10.38;;;614.90;2432.00;;;;;;4919184;29;20243;-83
2023/08/16 08:31:05;;;;;;;12.63;10.65;;;614.90;2432.00;;;;;;4919933;29;20030;-84
2023/08/16 08:33:31;;;;;;;12.75;10.25;;;615.00;2432.00;;;;;;4919601;29;20031;-84
2023/08/16 08:35:59;;;;;;;11.75;10.50;;;615.00;2432.00;;;;;;4918633;29;20042;-84
2023/08/16 08:38:25;;;;;;;14.15;11.38;;;615.00;2432.00;;;;;;4923482;29;20412;-84
2023/08/16 08:41:00;;;;;;;14.48;9.75;;;614.90;2432.00;;;;;;4927026;29;20059;-82
2023/08/16 08:43:36;;;;;;;10.98;9.85;;;615.00;2432.00;;;;;;4934421;29;20479;-82
2023/08/16 08:46:04;;;;;;;13.57;10.88;;;614.90;2432.00;;;;;;4919728;29;20484;-83
2023/08/16 08:48:30;;;;;;;12.00;9.88;;;;;;;;;;4920560;29;20040;-85
2023/08/16 08:50:58;;;;;;;12.18;10.02;;;;;;;;;;4935601;29;20048;-83
2023/08/16 08:53:25;;;;;;;11.20;10.10;;;615.30;2432.00;;;;;;4946590;28;20035;-84
2023/08/16 08:55:55;;;;;;;11.85;10.65;;;;;;;;;;4957205;28;20035;-83
2023/08/16 08:58:21;;;;;;;12.90;10.05;;;;;;;;;;4961337;28;20459;-83
2023/08/16 09:00:48;;;;;;;10.93;9.82;;;;;;;;;;4955155;28;20055;-82
2023/08/16 09:03:17;;;;;;;12.38;10.20;;;;;;;;;;4951742;29;20019;-84
2023/08/16 09:05:45;;;;;;;11.00;9.95;;;640.10;2432.00;;;;;;4952010;29;20019;-82
2023/08/16 09:08:13;;;;;;;11.70;9.77;;;640.10;2432.00;;;;;;4956588;29;20027;-84
2023/08/16 09:10:40;;;;;;;11.43;10.23;;;640.40;2432.00;;;;;;4959032;29;20067;-84
2023/08/16 09:13:09;;;;;;;12.18;10.23;;;640.30;2432.00;;;;;;4967549;28;20039;-82
2023/08/16 09:15:38;;;;;;;11.95;10.57;;;640.50;2432.00;;;;;;4956982;29;20035;-81
2023/08/16 09:18:12;;;;;;;11.95;9.75;;;640.70;2432.00;;;;;;4956859;28;20074;-82
2023/08/16 09:20:39;;;;;;;16.10;11.27;;;640.70;2432.00;;;;;;4953248;29;20464;-81
2023/08/16 09:23:05;;;;;;;15.50;11.48;;;665.90;2432.00;;;;;;4936922;29;20054;-85
2023/08/16 09:25:31;;;;;;;12.20;10.60;;;;;;;;;;4937341;29;20036;-84
2023/08/16 09:27:58;;;;;;;12.32;11.00;;;;;;;;;;4937573;29;20090;-80
2023/08/16 09:30:27;;;;;;;12.13;9.40;;;;;;;;;;4937964;29;20028;-80
2023/08/16 09:32:53;;;;;;;10.43;8.82;;;;;;;;;;4947106;29;20050;-84
2023/08/16 09:35:19;;;;;;;10.52;9.40;;;;;;;;;;4956220;29;20024;-81
2023/08/16 09:37:45;;;;;;;12.93;10.90;;;;;;;;;;4955495;29;20032;-83
2023/08/16 09:40:12;;;;;;;11.00;9.00;;;;;;;;;;4959273;29;20109;-81
2023/08/16 09:42:38;;;;;;;13.68;8.55;;;;;;;;;;4957703;29;20023;-83
2023/08/16 09:45:04;;;;;;;13.02;9.40;;;;;;;;;;4956237;29;20043;-80
2023/08/16 09:47:31;;;;;;;13.10;8.88;;;;;;;;;;4956468;29;20023;-85
2023/08/16 09:50:06;;;;;;;13.82;9.93;;;;;;;;;;4954470;29;20396;-81
2023/08/16 09:52:34;;;;;;;12.63;10.52;;;;;;;;;;4944763;29;20043;-80
2023/08/16 09:55:01;;;;;;;10.40;9.30;;;;;;;;;;4961528;29;20031;-83
2023/08/16 09:57:27;;;;;;;14.57;9.02;;;;;;;;;;4938003;29;20051;-80
2023/08/16 09:59:54;;;;;;;11.70;9.18;;;;;;;;;;4937640;29;20028;-83
2023/08/16 10:02:21;;;;;;;10.93;9.27;;;;;;;;;;4940625;29;20032;-81
2023/08/16 10:04:47;;;;;;;12.52;9.57;;;;;;;;;;4940829;29;20023;-83
2023/08/16 10:07:14;;;;;;;10.38;9.15;;;;;;;;;;4946249;29;20032;-81
2023/08/16 10:09:44;;;;;;;13.35;11.05;;;;;;;;;;4951091;29;20028;-83
2023/08/16 10:12:11;;;;;;;11.50;9.27;;;717.40;2432.00;;;;;;4953400;29;20020;-83
2023/08/16 10:14:39;;;;;;;9.52;8.30;;;;;;;;;;4954538;29;20042;-84
2023/08/16 10:17:06;;;;;;;10.63;8.85;;;;;;;;;;4952113;29;20030;-82
2023/08/16 10:19:33;;;;;;;11.75;9.75;;;;;;;;;;4951984;29;20083;-84
2023/08/16 10:22:09;;;;;;;15.45;8.65;;;;;;;;;;4953199;29;20027;-82
2023/08/16 10:24:35;;;;;;;10.07;8.77;;;742.90;2432.00;;;;;;4948167;29;20027;-84
2023/08/16 10:27:05;;;;;;;10.13;8.63;;;742.70;2432.00;;;;;;4945770;29;20043;-81
2023/08/16 10:29:38;;;;;;;12.23;9.88;;;;;;;;;;4947053;29;20369;-82
2023/08/16 10:32:13;;;;;;;10.43;8.95;;;742.40;2432.00;;;;;;4949282;29;20020;-82
2023/08/16 10:34:40;;;;;;;10.60;8.95;;;717.50;2432.00;;;;;;4954640;29;20032;-83
2023/08/16 10:37:06;;;;;;;12.23;9.05;;;717.70;2432.00;;;;;;4954919;29;20050;-82
2023/08/16 10:39:32;;;;;;;11.88;9.05;;;742.50;2432.00;;;;;;4962507;29;20028;-84
2023/08/16 10:42:07;;;;;;;10.32;9.20;;;742.50;2432.00;;;;;;4960823;28;20106;-81
2023/08/16 10:44:33;;;;;;;11.43;10.35;;;742.50;2432.00;;;;;;4960040;29;20042;-80
2023/08/16 10:46:59;;;;;;;16.80;10.93;;;742.70;2432.00;;;;;;4963367;29;20067;-84
2023/08/16 10:49:35;;;;;;;12.73;10.55;;;742.90;2432.00;;;;;;4961016;29;20055;-83
2023/08/16 10:52:01;;;;;;;11.35;9.77;;;;;;;;;;4960449;29;20054;-83
2023/08/16 10:54:35;;;;;;;10.07;9.07;;;;;;;;;;4961604;29;20390;-82
2023/08/16 10:57:01;;;;;;;9.98;8.82;;;;;;;;;;4966154;29;20049;-82
2023/08/16 10:59:36;;;;;;;13.05;9.50;;;;;;;;;;4967347;29;20114;-84
2023/08/16 11:02:08;;;;;;;9.05;8.15;;;;;;;;;;4968425;28;20031;-83
2023/08/16 11:04:36;;;;;;;12.18;9.23;;;;;;;;;;4965596;29;20023;-83
2023/08/16 11:07:06;;;;;;;10.35;8.25;;;;;;;;;;4959990;29;20070;-82
2023/08/16 11:09:32;;;;;;;12.27;8.90;;;;;;;;;;4961813;29;20075;-83
2023/08/16 11:12:02;;;;;;;8.82;7.47;;;;;;;;;;4961366;29;20043;-84
2023/08/16 11:14:28;;;;;;;10.20;8.57;;;;;;;;;;4961638;29;20067;-82
2023/08/16 11:16:57;;;;;;;8.82;8.00;;;;;;;;;;4961710;29;20038;-84
2023/08/16 11:19:23;;;;;;;11.90;8.27;;;;;;;;;;4959884;28;20468;-84
2023/08/16 11:21:51;;;;;;;9.95;8.50;;;;;;;;;;4965108;29;20423;-85
2023/08/16 11:24:18;;;;;;;14.55;9.73;;;;;;;;;;4961516;29;20027;-83
2023/08/16 11:26:44;;;;;;;10.20;9.07;;;;;;;;;;4951319;29;20118;-83
2023/08/16 11:29:10;;;;;;;11.77;10.18;;;;;;;;;;4957159;29;20395;-81
2023/08/16 11:31:36;;;;;;;10.60;9.48;;;;;;;;;;4961692;29;20020;-85
2023/08/16 11:34:10;;;;;;;14.45;9.57;;;;;;;;;;4962804;29;20114;-85
2023/08/16 11:36:38;;;;;;;12.27;9.48;;;;;;;;;;4963467;28;20027;-82
2023/08/16 11:39:04;;;;;;;10.35;9.07;;;;;;;;;;4959377;29;20081;-84
2023/08/16 11:41:30;;;;;;;11.25;10.02;;;;;;;;;;4960245;29;20028;-84
2023/08/16 11:44:00;;;;;;;12.68;10.48;;;;;;;;;;4959670;29;20015;-84
2023/08/16 11:46:26;;;;;;;11.32;9.25;;;;;;;;;;4957608;29;20130;-85
2023/08/16 11:48:53;;;;;;;10.23;8.60;;;;;;;;;;4958889;29;20071;-84
2023/08/16 11:51:20;;;;;;;10.10;8.60;;;;;;;;;;4946824;29;20053;-84
2023/08/16 11:53:46;;;;;;;10.90;9.80;;;;;;;;;;4939894;29;20103;-83
2023/08/16 11:56:12;;;;;;;13.93;9.38;;;;;;;;;;4943489;29;20035;-86
2023/08/16 11:58:48;;;;;;;9.75;8.68;;;;;;;;;;4938292;29;20027;-83
2023/08/16 12:01:15;;;;;;;13.13;9.77;;;;;;;;;;4939429;29;20050;-83
2023/08/16 12:03:46;;;;;;;10.63;9.00;;;;;;;;;;4945812;29;20034;-85
2023/08/16 12:06:12;;;;;;;11.40;10.20;;;;;;;;;;4948124;29;20028;-83
2023/08/16 12:08:51;;;;;;;14.95;9.63;;;;;;;;;;4958997;29;20026;-83
2023/08/16 12:11:32;;;;;;;11.95;8.77;;;;;;;;;;4951343;29;20086;-81
2023/08/16 12:13:58;;;;;;;10.73;8.25;;;;;;;;;;4949298;29;20035;-85
2023/08/16 12:16:25;;;;;;;16.63;12.88;;;794.20;2355.20;;;;;;4957652;29;20031;-81
2023/08/16 12:18:50;;;;;;;11.35;10.10;;;794.00;2380.80;;;;;;4959171;29;20034;-84
2023/08/16 12:21:16;;;;;;;11.23;10.02;;;793.70;2432.00;;;;;;4959383;29;20028;-83
2023/08/16 12:23:42;;;;;;;12.48;10.57;;;768.70;2432.00;;;;;;4961075;29;20023;-85
2023/08/16 12:26:08;;;;;;;14.10;10.75;;;768.40;2432.00;;;;;;4961110;29;20040;-83
2023/08/16 12:28:35;;;;;;;16.48;9.85;;;768.10;2432.00;;;;;;4958796;29;20031;-82
2023/08/16 12:31:01;;;;;;;12.50;10.20;;;743.10;2432.00;;;;;;4946680;28;20082;-83